sensor_id;sensor_type;location;lat;lon;timestamp;temperature;humidity
75105;DHT22;64778;47.314;8.466;2023-02-28T00:00:19;-1.30;80.30
75105;DHT22;64778;47.314;8.466;2023-02-28T00:02:45;-1.30;80.40
75105;DHT22;64778;47.314;8.466;2023-02-28T00:05:13;-1.30;80.70
75105;DHT22;64778;47.314;8.466;2023-02-28T00:07:40;-1.30;80.30
75105;DHT22;64778;47.314;8.466;2023-02-28T00:10:13;-1.30;80.10
75105;DHT22;64778;47.314;8.466;2023-02-28T00:12:39;-1.30;80.60
75105;DHT22;64778;47.314;8.466;2023-02-28T00:26:06;-1.30;81.00
75105;DHT22;64778;47.314;8.466;2023-02-28T00:28:34;-1.30;80.90
75105;DHT22;64778;47.314;8.466;2023-02-28T00:31:02;-1.40;81.20
75105;DHT22;64778;47.314;8.466;2023-02-28T00:33:28;-1.30;81.00
75105;DHT22;64778;47.314;8.466;2023-02-28T00:36:05;-1.30;80.60
75105;DHT22;64778;47.314;8.466;2023-02-28T00:38:31;-1.30;80.70
75105;DHT22;64778;47.314;8.466;2023-02-28T00:40:57;-1.40;80.80
75105;DHT22;64778;47.314;8.466;2023-02-28T00:43:26;-1.40;81.20
75105;DHT22;64778;47.314;8.466;2023-02-28T00:45:54;-1.40;80.80
75105;DHT22;64778;47.314;8.466;2023-02-28T00:48:19;-1.30;81.00
75105;DHT22;64778;47.314;8.466;2023-02-28T00:50:50;-1.20;81.00
75105;DHT22;64778;47.314;8.466;2023-02-28T00:53:15;-1.20;80.50
75105;DHT22;64778;47.314;8.466;2023-02-28T00:55:43;-1.20;80.80
75105;DHT22;64778;47.314;8.466;2023-02-28T00:58:46;-1.20;80.80
75105;DHT22;64778;47.314;8.466;2023-02-28T01:01:12;-1.30;81.10
75105;DHT22;64778;47.314;8.466;2023-02-28T01:03:38;-1.20;81.10
75105;DHT22;64778;47.314;8.466;2023-02-28T01:06:04;-1.20;80.60
75105;DHT22;64778;47.314;8.466;2023-02-28T01:08:30;-1.10;80.70
75105;DHT22;64778;47.314;8.466;2023-02-28T01:11:07;-1.20;80.50
75105;DHT22;64778;47.314;8.466;2023-02-28T01:13:41;-1.10;80.50
75105;DHT22;64778;47.314;8.466;2023-02-28T01:16:07;-1.30;81.00
75105;DHT22;64778;47.314;8.466;2023-02-28T01:18:32;-1.20;80.90
75105;DHT22;64778;47.314;8.466;2023-02-28T01:20:58;-1.20;80.60
75105;DHT22;64778;47.314;8.466;2023-02-28T01:23:30;-1.20;80.50
75105;DHT22;64778;47.314;8.466;2023-02-28T01:25:55;-1.20;80.70
75105;DHT22;64778;47.314;8.466;2023-02-28T01:28:23;-1.30;80.90
75105;DHT22;64778;47.314;8.466;2023-02-28T01:30:51;-1.30;81.00
75105;DHT22;64778;47.314;8.466;2023-02-28T01:33:22;-1.30;81.00
75105;DHT22;64778;47.314;8.466;2023-02-28T01:36:01;-1.30;81.00
75105;DHT22;64778;47.314;8.466;2023-02-28T01:38:30;-1.30;81.20
75105;DHT22;64778;47.314;8.466;2023-02-28T01:47:37;-1.30;81.20
75105;DHT22;64778;47.314;8.466;2023-02-28T01:50:07;-1.40;81.30
75105;DHT22;64778;47.314;8.466;2023-02-28T01:52:35;-1.30;81.30
75105;DHT22;64778;47.314;8.466;2023-02-28T01:55:04;-1.20;81.20
75105;DHT22;64778;47.314;8.466;2023-02-28T01:57:41;-1.20;81.30
75105;DHT22;64778;47.314;8.466;2023-02-28T02:00:14;-1.30;81.20
75105;DHT22;64778;47.314;8.466;2023-02-28T02:02:43;-1.30;81.30
75105;DHT22;64778;47.314;8.466;2023-02-28T02:05:19;-1.10;81.20
75105;DHT22;64778;47.314;8.466;2023-02-28T02:07:47;-1.00;81.00
75105;DHT22;64778;47.314;8.466;2023-02-28T02:10:18;-0.90;80.50
75105;DHT22;64778;47.314;8.466;2023-02-28T02:38:07;-1.00;80.50
75105;DHT22;64778;47.314;8.466;2023-02-28T02:43:25;-0.90;80.10
75105;DHT22;64778;47.314;8.466;2023-02-28T02:46:23;-0.90;80.00
75105;DHT22;64778;47.314;8.466;2023-02-28T02:48:52;-1.10;80.10
75105;DHT22;64778;47.314;8.466;2023-02-28T02:51:24;-1.10;80.40
75105;DHT22;64778;47.314;8.466;2023-02-28T02:53:58;-1.20;80.90
75105;DHT22;64778;47.314;8.466;2023-02-28T02:56:31;-1.10;80.80
75105;DHT22;64778;47.314;8.466;2023-02-28T02:59:05;-1.10;80.30
75105;DHT22;64778;47.314;8.466;2023-02-28T03:01:32;-1.20;80.40
75105;DHT22;64778;47.314;8.466;2023-02-28T03:04:07;-1.20;80.80
75105;DHT22;64778;47.314;8.466;2023-02-28T03:06:35;-1.10;80.80
75105;DHT22;64778;47.314;8.466;2023-02-28T03:09:01;-1.20;80.80
75105;DHT22;64778;47.314;8.466;2023-02-28T03:11:31;-1.20;80.90
75105;DHT22;64778;47.314;8.466;2023-02-28T03:17:36;-1.20;81.10
75105;DHT22;64778;47.314;8.466;2023-02-28T03:22:55;-1.20;81.30
75105;DHT22;64778;47.314;8.466;2023-02-28T03:36:04;-1.10;80.60
75105;DHT22;64778;47.314;8.466;2023-02-28T03:44:07;-1.30;81.00
75105;DHT22;64778;47.314;8.466;2023-02-28T03:46:44;-1.20;81.00
75105;DHT22;64778;47.314;8.466;2023-02-28T03:52:42;-1.10;80.40
75105;DHT22;64778;47.314;8.466;2023-02-28T03:55:12;-1.10;80.60
75105;DHT22;64778;47.314;8.466;2023-02-28T04:00:29;-1.10;80.50
75105;DHT22;64778;47.314;8.466;2023-02-28T04:02:55;-1.10;80.70
75105;DHT22;64778;47.314;8.466;2023-02-28T04:05:26;-1.10;80.30
75105;DHT22;64778;47.314;8.466;2023-02-28T04:07:54;-1.20;80.80
75105;DHT22;64778;47.314;8.466;2023-02-28T04:10:30;-1.20;80.70
75105;DHT22;64778;47.314;8.466;2023-02-28T04:12:58;-1.20;80.50
75105;DHT22;64778;47.314;8.466;2023-02-28T04:15:24;-1.40;80.90
75105;DHT22;64778;47.314;8.466;2023-02-28T04:17:52;-1.40;81.20
75105;DHT22;64778;47.314;8.466;2023-02-28T04:20:23;-1.30;80.80
75105;DHT22;64778;47.314;8.466;2023-02-28T04:22:53;-1.30;81.10
75105;DHT22;64778;47.314;8.466;2023-02-28T04:25:21;-1.30;81.00
75105;DHT22;64778;47.314;8.466;2023-02-28T04:27:48;-1.30;80.90
75105;DHT22;64778;47.314;8.466;2023-02-28T04:30:16;-1.40;81.20
75105;DHT22;64778;47.314;8.466;2023-02-28T04:32:42;-1.40;80.70
75105;DHT22;64778;47.314;8.466;2023-02-28T04:38:36;-1.30;81.30
75105;DHT22;64778;47.314;8.466;2023-02-28T04:41:07;-1.30;81.20
75105;DHT22;64778;47.314;8.466;2023-02-28T04:43:35;-1.30;81.10
75105;DHT22;64778;47.314;8.466;2023-02-28T04:46:03;-1.30;80.90
75105;DHT22;64778;47.314;8.466;2023-02-28T04:48:34;-1.30;81.00
75105;DHT22;64778;47.314;8.466;2023-02-28T04:51:09;-1.30;81.00
75105;DHT22;64778;47.314;8.466;2023-02-28T04:53:38;-1.40;81.20
75105;DHT22;64778;47.314;8.466;2023-02-28T04:56:05;-1.50;81.30
75105;DHT22;64778;47.314;8.466;2023-02-28T04:58:31;-1.30;81.40
75105;DHT22;64778;47.314;8.466;2023-02-28T05:01:16;-1.40;81.00
75105;DHT22;64778;47.314;8.466;2023-02-28T05:03:42;-1.40;81.30
75105;DHT22;64778;47.314;8.466;2023-02-28T05:06:11;-1.40;81.50
75105;DHT22;64778;47.314;8.466;2023-02-28T05:08:43;-1.30;81.00
75105;DHT22;64778;47.314;8.466;2023-02-28T05:11:30;-1.40;81.10
75105;DHT22;64778;47.314;8.466;2023-02-28T05:17:22;-1.30;80.60
75105;DHT22;64778;47.314;8.466;2023-02-28T05:23:13;-1.40;80.80
75105;DHT22;64778;47.314;8.466;2023-02-28T05:29:01;-1.40;80.90
75105;DHT22;64778;47.314;8.466;2023-02-28T05:31:26;-1.30;81.10
75105;DHT22;64778;47.314;8.466;2023-02-28T05:33:54;-1.30;80.60
75105;DHT22;64778;47.314;8.466;2023-02-28T05:36:22;-1.30;80.20
75105;DHT22;64778;47.314;8.466;2023-02-28T05:38:49;-1.30;80.50
75105;DHT22;64778;47.314;8.466;2023-02-28T05:41:19;-1.20;80.40
75105;DHT22;64778;47.314;8.466;2023-02-28T05:46:57;-1.30;80.70
75105;DHT22;64778;47.314;8.466;2023-02-28T05:49:22;-1.20;80.50
75105;DHT22;64778;47.314;8.466;2023-02-28T05:51:53;-1.20;80.70
75105;DHT22;64778;47.314;8.466;2023-02-28T05:54:18;-1.20;80.60
75105;DHT22;64778;47.314;8.466;2023-02-28T05:56:44;-1.20;80.50
75105;DHT22;64778;47.314;8.466;2023-02-28T05:59:13;-1.20;80.30
75105;DHT22;64778;47.314;8.466;2023-02-28T06:01:43;-1.30;80.10
75105;DHT22;64778;47.314;8.466;2023-02-28T06:04:17;-1.20;80.50
75105;DHT22;64778;47.314;8.466;2023-02-28T06:10:09;-1.20;80.30
75105;DHT22;64778;47.314;8.466;2023-02-28T06:12:40;-1.30;81.10
75105;DHT22;64778;47.314;8.466;2023-02-28T06:15:10;-1.30;80.40
75105;DHT22;64778;47.314;8.466;2023-02-28T06:17:37;-1.20;80.80
75105;DHT22;64778;47.314;8.466;2023-02-28T06:20:06;-1.20;80.70
75105;DHT22;64778;47.314;8.466;2023-02-28T06:25:54;-1.30;81.00
75105;DHT22;64778;47.314;8.466;2023-02-28T06:28:24;-1.30;81.00
75105;DHT22;64778;47.314;8.466;2023-02-28T06:34:15;-1.30;81.00
75105;DHT22;64778;47.314;8.466;2023-02-28T06:36:44;-1.20;81.30
75105;DHT22;64778;47.314;8.466;2023-02-28T06:39:12;-1.20;80.50
75105;DHT22;64778;47.314;8.466;2023-02-28T06:41:37;-1.20;80.30
75105;DHT22;64778;47.314;8.466;2023-02-28T06:44:10;-1.10;80.50
75105;DHT22;64778;47.314;8.466;2023-02-28T06:46:36;-0.60;84.70
75105;DHT22;64778;47.314;8.466;2023-02-28T06:49:06;-0.20;79.20
75105;DHT22;64778;47.314;8.466;2023-02-28T06:51:39;-0.20;77.40
75105;DHT22;64778;47.314;8.466;2023-02-28T06:54:11;-0.40;78.10
75105;DHT22;64778;47.314;8.466;2023-02-28T06:56:37;-0.50;78.00
75105;DHT22;64778;47.314;8.466;2023-02-28T06:59:05;-0.70;78.70
75105;DHT22;64778;47.314;8.466;2023-02-28T07:01:36;-0.80;78.80
75105;DHT22;64778;47.314;8.466;2023-02-28T07:04:01;-0.90;79.70
75105;DHT22;64778;47.314;8.466;2023-02-28T07:06:30;-0.80;79.70
75105;DHT22;64778;47.314;8.466;2023-02-28T07:08:58;-0.80;79.50
75105;DHT22;64778;47.314;8.466;2023-02-28T07:11:27;-0.80;79.50
75105;DHT22;64778;47.314;8.466;2023-02-28T07:13:58;-0.70;79.30
75105;DHT22;64778;47.314;8.466;2023-02-28T07:16:25;-0.80;79.40
75105;DHT22;64778;47.314;8.466;2023-02-28T07:18:54;-0.70;78.90
75105;DHT22;64778;47.314;8.466;2023-02-28T07:21:22;-0.70;79.30
75105;DHT22;64778;47.314;8.466;2023-02-28T07:23:50;-0.70;79.50
75105;DHT22;64778;47.314;8.466;2023-02-28T07:26:18;-0.50;78.30
75105;DHT22;64778;47.314;8.466;2023-02-28T07:28:48;-0.50;78.40
75105;DHT22;64778;47.314;8.466;2023-02-28T07:31:14;-0.60;78.30
75105;DHT22;64778;47.314;8.466;2023-02-28T07:33:46;-0.70;78.40
75105;DHT22;64778;47.314;8.466;2023-02-28T07:36:16;-0.70;78.80
75105;DHT22;64778;47.314;8.466;2023-02-28T07:38:45;-0.70;79.10
75105;DHT22;64778;47.314;8.466;2023-02-28T07:41:19;-0.60;78.70
75105;DHT22;64778;47.314;8.466;2023-02-28T07:43:46;-0.60;78.60
75105;DHT22;64778;47.314;8.466;2023-02-28T07:46:13;-0.50;77.60
75105;DHT22;64778;47.314;8.466;2023-02-28T07:48:42;-0.30;77.80
75105;DHT22;64778;47.314;8.466;2023-02-28T07:51:12;0.00;77.30
75105;DHT22;64778;47.314;8.466;2023-02-28T07:53:40;0.10;76.70
75105;DHT22;64778;47.314;8.466;2023-02-28T07:56:11;0.10;76.90
75105;DHT22;64778;47.314;8.466;2023-02-28T07:58:36;0.00;76.90
75105;DHT22;64778;47.314;8.466;2023-02-28T08:01:06;0.30;75.40
75105;DHT22;64778;47.314;8.466;2023-02-28T08:03:32;0.30;76.10
75105;DHT22;64778;47.314;8.466;2023-02-28T08:05:57;0.20;76.40
75105;DHT22;64778;47.314;8.466;2023-02-28T08:08:28;0.20;76.30
75105;DHT22;64778;47.314;8.466;2023-02-28T08:11:02;0.40;75.90
75105;DHT22;64778;47.314;8.466;2023-02-28T08:13:31;0.70;75.40
75105;DHT22;64778;47.314;8.466;2023-02-28T08:16:01;0.60;75.10
75105;DHT22;64778;47.314;8.466;2023-02-28T08:18:30;0.60;74.60
75105;DHT22;64778;47.314;8.466;2023-02-28T08:20:55;0.70;74.60
75105;DHT22;64778;47.314;8.466;2023-02-28T08:23:22;0.70;74.30
75105;DHT22;64778;47.314;8.466;2023-02-28T08:25:56;0.50;74.80
75105;DHT22;64778;47.314;8.466;2023-02-28T08:28:22;0.70;74.00
75105;DHT22;64778;47.314;8.466;2023-02-28T08:30:50;0.70;73.60
75105;DHT22;64778;47.314;8.466;2023-02-28T08:33:21;0.60;74.00
75105;DHT22;64778;47.314;8.466;2023-02-28T08:35:50;0.80;73.80
75105;DHT22;64778;47.314;8.466;2023-02-28T08:38:17;1.00;73.90
75105;DHT22;64778;47.314;8.466;2023-02-28T08:40:42;1.10;73.60
75105;DHT22;64778;47.314;8.466;2023-02-28T08:43:08;1.10;72.40
75105;DHT22;64778;47.314;8.466;2023-02-28T08:45:33;1.10;73.00
75105;DHT22;64778;47.314;8.466;2023-02-28T08:48:01;1.10;73.00
75105;DHT22;64778;47.314;8.466;2023-02-28T08:50:29;1.30;72.30
75105;DHT22;64778;47.314;8.466;2023-02-28T08:52:57;1.00;72.80
75105;DHT22;64778;47.314;8.466;2023-02-28T08:55:28;1.20;72.60
75105;DHT22;64778;47.314;8.466;2023-02-28T08:57:56;0.90;72.40
75105;DHT22;64778;47.314;8.466;2023-02-28T09:00:22;0.90;72.90
75105;DHT22;64778;47.314;8.466;2023-02-28T09:02:50;1.10;72.30
75105;DHT22;64778;47.314;8.466;2023-02-28T09:05:16;1.10;71.80
75105;DHT22;64778;47.314;8.466;2023-02-28T09:07:44;1.20;72.40
75105;DHT22;64778;47.314;8.466;2023-02-28T09:10:10;1.10;72.20
75105;DHT22;64778;47.314;8.466;2023-02-28T09:12:36;1.20;72.40
75105;DHT22;64778;47.314;8.466;2023-02-28T09:15:02;1.00;73.10
75105;DHT22;64778;47.314;8.466;2023-02-28T09:17:27;1.10;72.90
75105;DHT22;64778;47.314;8.466;2023-02-28T09:19:56;0.90;72.90
75105;DHT22;64778;47.314;8.466;2023-02-28T09:22:22;1.00;72.60
75105;DHT22;64778;47.314;8.466;2023-02-28T09:24:50;1.00;72.80
75105;DHT22;64778;47.314;8.466;2023-02-28T09:27:20;0.90;73.10
75105;DHT22;64778;47.314;8.466;2023-02-28T09:29:46;0.90;73.10
75105;DHT22;64778;47.314;8.466;2023-02-28T09:32:14;1.00;72.60
75105;DHT22;64778;47.314;8.466;2023-02-28T09:34:40;1.10;72.40
75105;DHT22;64778;47.314;8.466;2023-02-28T09:37:05;0.90;73.30
75105;DHT22;64778;47.314;8.466;2023-02-28T09:39:31;1.20;72.60
75105;DHT22;64778;47.314;8.466;2023-02-28T09:41:57;1.00;72.00
75105;DHT22;64778;47.314;8.466;2023-02-28T09:44:26;1.00;72.60
75105;DHT22;64778;47.314;8.466;2023-02-28T09:47:01;1.00;72.70
75105;DHT22;64778;47.314;8.466;2023-02-28T09:49:41;1.20;72.20
75105;DHT22;64778;47.314;8.466;2023-02-28T09:52:21;1.20;71.90
75105;DHT22;64778;47.314;8.466;2023-02-28T09:54:48;1.50;71.60
75105;DHT22;64778;47.314;8.466;2023-02-28T09:57:41;1.10;70.70
75105;DHT22;64778;47.314;8.466;2023-02-28T10:00:35;1.00;72.10
75105;DHT22;64778;47.314;8.466;2023-02-28T10:08:39;1.20;71.60
75105;DHT22;64778;47.314;8.466;2023-02-28T10:11:09;1.20;72.10
75105;DHT22;64778;47.314;8.466;2023-02-28T10:14:01;0.90;72.50
75105;DHT22;64778;47.314;8.466;2023-02-28T10:17:16;1.00;72.20
75105;DHT22;64778;47.314;8.466;2023-02-28T10:25:23;1.10;72.20
75105;DHT22;64778;47.314;8.466;2023-02-28T10:27:53;1.20;71.90
75105;DHT22;64778;47.314;8.466;2023-02-28T10:30:21;1.40;71.30
75105;DHT22;64778;47.314;8.466;2023-02-28T10:32:51;1.30;71.80
75105;DHT22;64778;47.314;8.466;2023-02-28T10:35:22;1.60;71.70
75105;DHT22;64778;47.314;8.466;2023-02-28T10:37:57;2.10;70.50
75105;DHT22;64778;47.314;8.466;2023-02-28T10:40:32;1.70;70.50
75105;DHT22;64778;47.314;8.466;2023-02-28T10:43:18;1.80;70.10
75105;DHT22;64778;47.314;8.466;2023-02-28T10:55:58;1.80;69.90
75105;DHT22;64778;47.314;8.466;2023-02-28T10:58:28;1.70;70.30
75105;DHT22;64778;47.314;8.466;2023-02-28T11:00:55;1.70;69.80
75105;DHT22;64778;47.314;8.466;2023-02-28T11:03:31;1.70;70.00
75105;DHT22;64778;47.314;8.466;2023-02-28T11:05:57;1.50;71.00
75105;DHT22;64778;47.314;8.466;2023-02-28T11:08:24;1.50;71.20
75105;DHT22;64778;47.314;8.466;2023-02-28T11:11:04;1.60;70.70
75105;DHT22;64778;47.314;8.466;2023-02-28T11:13:35;1.50;70.40
75105;DHT22;64778;47.314;8.466;2023-02-28T11:16:06;1.60;69.70
75105;DHT22;64778;47.314;8.466;2023-02-28T11:18:55;1.40;70.70
75105;DHT22;64778;47.314;8.466;2023-02-28T11:21:29;1.60;70.30
75105;DHT22;64778;47.314;8.466;2023-02-28T11:29:53;1.50;69.80
75105;DHT22;64778;47.314;8.466;2023-02-28T11:32:23;1.50;69.90
75105;DHT22;64778;47.314;8.466;2023-02-28T11:37:37;1.40;71.30
75105;DHT22;64778;47.314;8.466;2023-02-28T11:40:13;1.40;71.00
75105;DHT22;64778;47.314;8.466;2023-02-28T11:51:26;2.10;69.40
75105;DHT22;64778;47.314;8.466;2023-02-28T11:54:23;2.20;69.10
75105;DHT22;64778;47.314;8.466;2023-02-28T11:57:24;1.50;70.20
75105;DHT22;64778;47.314;8.466;2023-02-28T12:10:26;2.50;67.80
75105;DHT22;64778;47.314;8.466;2023-02-28T12:13:12;2.80;67.20
75105;DHT22;64778;47.314;8.466;2023-02-28T12:27:00;2.40;67.90
75105;DHT22;64778;47.314;8.466;2023-02-28T12:29:28;2.10;68.30
75105;DHT22;64778;47.314;8.466;2023-02-28T12:31:59;1.80;69.20
75105;DHT22;64778;47.314;8.466;2023-02-28T12:34:27;2.00;69.70
75105;DHT22;64778;47.314;8.466;2023-02-28T12:36:53;2.20;68.40
75105;DHT22;64778;47.314;8.466;2023-02-28T12:39:26;2.00;69.20
75105;DHT22;64778;47.314;8.466;2023-02-28T12:44:28;2.10;69.20
75105;DHT22;64778;47.314;8.466;2023-02-28T12:46:57;2.30;68.60
75105;DHT22;64778;47.314;8.466;2023-02-28T12:49:29;2.20;69.60
75105;DHT22;64778;47.314;8.466;2023-02-28T12:51:57;2.30;69.50
75105;DHT22;64778;47.314;8.466;2023-02-28T12:54:39;2.50;68.10
75105;DHT22;64778;47.314;8.466;2023-02-28T12:59:53;2.20;68.20
75105;DHT22;64778;47.314;8.466;2023-02-28T13:10:08;1.80;70.40
75105;DHT22;64778;47.314;8.466;2023-02-28T13:12:35;1.90;69.60
75105;DHT22;64778;47.314;8.466;2023-02-28T13:15:34;2.20;69.40
75105;DHT22;64778;47.314;8.466;2023-02-28T13:17:57;2.00;69.20
75105;DHT22;64778;47.314;8.466;2023-02-28T13:26:05;1.90;69.50
75105;DHT22;64778;47.314;8.466;2023-02-28T13:31:15;2.00;68.60
75105;DHT22;64778;47.314;8.466;2023-02-28T13:38:45;1.60;70.00
75105;DHT22;64778;47.314;8.466;2023-02-28T13:43:59;1.90;70.40
75105;DHT22;64778;47.314;8.466;2023-02-28T13:46:26;1.80;69.20
75105;DHT22;64778;47.314;8.466;2023-02-28T13:48:53;1.90;69.60
75105;DHT22;64778;47.314;8.466;2023-02-28T13:57:06;1.80;70.20
75105;DHT22;64778;47.314;8.466;2023-02-28T14:05:27;1.80;69.60
75105;DHT22;64778;47.314;8.466;2023-02-28T14:07:38;1.80;69.30
75105;DHT22;64778;47.314;8.466;2023-02-28T14:10:06;1.40;69.70
75105;DHT22;64778;47.314;8.466;2023-02-28T14:18:10;1.60;70.40
75105;DHT22;64778;47.314;8.466;2023-02-28T14:29:56;1.70;70.40
75105;DHT22;64778;47.314;8.466;2023-02-28T14:32:10;1.50;70.50
75105;DHT22;64778;47.314;8.466;2023-02-28T14:34:42;1.70;70.60
75105;DHT22;64778;47.314;8.466;2023-02-28T14:37:15;1.80;70.00
75105;DHT22;64778;47.314;8.466;2023-02-28T14:39:44;1.90;69.70
75105;DHT22;64778;47.314;8.466;2023-02-28T14:45:19;1.60;70.90
75105;DHT22;64778;47.314;8.466;2023-02-28T14:47:45;1.50;70.80
75105;DHT22;64778;47.314;8.466;2023-02-28T14:50:21;1.60;71.00
75105;DHT22;64778;47.314;8.466;2023-02-28T14:52:47;1.50;71.60
75105;DHT22;64778;47.314;8.466;2023-02-28T14:55:17;1.50;71.00
75105;DHT22;64778;47.314;8.466;2023-02-28T15:00:47;1.60;70.30
75105;DHT22;64778;47.314;8.466;2023-02-28T15:03:23;1.30;71.20
75105;DHT22;64778;47.314;8.466;2023-02-28T15:05:56;1.20;71.30
75105;DHT22;64778;47.314;8.466;2023-02-28T15:08:22;1.10;71.50
75105;DHT22;64778;47.314;8.466;2023-02-28T15:10:58;1.20;72.60
75105;DHT22;64778;47.314;8.466;2023-02-28T15:13:36;1.20;72.20
75105;DHT22;64778;47.314;8.466;2023-02-28T15:16:04;1.10;72.50
75105;DHT22;64778;47.314;8.466;2023-02-28T15:21:35;1.00;72.90
75105;DHT22;64778;47.314;8.466;2023-02-28T15:24:04;0.90;72.10
75105;DHT22;64778;47.314;8.466;2023-02-28T15:26:42;0.90;72.80
75105;DHT22;64778;47.314;8.466;2023-02-28T15:29:12;0.80;73.00
75105;DHT22;64778;47.314;8.466;2023-02-28T15:31:49;0.70;73.30
75105;DHT22;64778;47.314;8.466;2023-02-28T15:39:52;0.70;73.30
75105;DHT22;64778;47.314;8.466;2023-02-28T15:42:22;0.60;73.80
75105;DHT22;64778;47.314;8.466;2023-02-28T15:44:48;0.60;73.70
75105;DHT22;64778;47.314;8.466;2023-02-28T15:52:14;0.70;73.30
75105;DHT22;64778;47.314;8.466;2023-02-28T15:57:44;0.90;73.50
75105;DHT22;64778;47.314;8.466;2023-02-28T16:00:12;0.60;73.90
75105;DHT22;64778;47.314;8.466;2023-02-28T16:02:40;0.80;73.60
75105;DHT22;64778;47.314;8.466;2023-02-28T16:08:15;0.80;73.80
75105;DHT22;64778;47.314;8.466;2023-02-28T16:10:40;0.80;73.70
75105;DHT22;64778;47.314;8.466;2023-02-28T16:13:06;0.60;74.20
75105;DHT22;64778;47.314;8.466;2023-02-28T16:15:35;0.60;74.20
75105;DHT22;64778;47.314;8.466;2023-02-28T16:18:07;0.50;74.40
75105;DHT22;64778;47.314;8.466;2023-02-28T16:20:33;0.40;74.20
75105;DHT22;64778;47.314;8.466;2023-02-28T16:22:59;0.30;75.20
75105;DHT22;64778;47.314;8.466;2023-02-28T16:28:32;0.30;75.50
75105;DHT22;64778;47.314;8.466;2023-02-28T16:31:02;0.40;75.00
75105;DHT22;64778;47.314;8.466;2023-02-28T16:33:29;0.50;74.50
75105;DHT22;64778;47.314;8.466;2023-02-28T16:35:55;0.40;74.90
75105;DHT22;64778;47.314;8.466;2023-02-28T16:38:20;0.40;75.00
75105;DHT22;64778;47.314;8.466;2023-02-28T16:40:46;0.50;75.10
75105;DHT22;64778;47.314;8.466;2023-02-28T16:43:17;0.50;75.00
75105;DHT22;64778;47.314;8.466;2023-02-28T16:45:44;0.50;74.90
75105;DHT22;64778;47.314;8.466;2023-02-28T16:48:16;0.50;75.00
75105;DHT22;64778;47.314;8.466;2023-02-28T16:50:44;0.50;75.20
75105;DHT22;64778;47.314;8.466;2023-02-28T16:53:09;0.40;74.70
75105;DHT22;64778;47.314;8.466;2023-02-28T16:55:37;0.40;75.10
75105;DHT22;64778;47.314;8.466;2023-02-28T16:58:03;0.20;75.50
75105;DHT22;64778;47.314;8.466;2023-02-28T17:00:29;0.20;75.60
75105;DHT22;64778;47.314;8.466;2023-02-28T17:06:17;0.20;75.50
75105;DHT22;64778;47.314;8.466;2023-02-28T17:08:45;0.20;75.70
75105;DHT22;64778;47.314;8.466;2023-02-28T17:14:14;0.10;76.30
75105;DHT22;64778;47.314;8.466;2023-02-28T17:16:39;0.20;75.90
75105;DHT22;64778;47.314;8.466;2023-02-28T17:19:09;0.20;76.10
75105;DHT22;64778;47.314;8.466;2023-02-28T17:24:41;0.20;76.00
75105;DHT22;64778;47.314;8.466;2023-02-28T17:27:09;0.20;76.40
75105;DHT22;64778;47.314;8.466;2023-02-28T17:29:35;0.30;76.10
75105;DHT22;64778;47.314;8.466;2023-02-28T17:32:00;0.30;76.30
75105;DHT22;64778;47.314;8.466;2023-02-28T17:34:26;0.10;76.80
75105;DHT22;64778;47.314;8.466;2023-02-28T17:36:54;0.00;76.80
75105;DHT22;64778;47.314;8.466;2023-02-28T17:39:21;0.10;76.80
75105;DHT22;64778;47.314;8.466;2023-02-28T17:41:53;0.20;76.60
75105;DHT22;64778;47.314;8.466;2023-02-28T17:44:24;0.30;76.50
75105;DHT22;64778;47.314;8.466;2023-02-28T17:46:52;0.30;76.60
75105;DHT22;64778;47.314;8.466;2023-02-28T17:49:18;0.30;76.90
75105;DHT22;64778;47.314;8.466;2023-02-28T17:51:48;0.20;76.30
75105;DHT22;64778;47.314;8.466;2023-02-28T17:54:15;0.20;76.50
75105;DHT22;64778;47.314;8.466;2023-02-28T17:59:48;0.30;76.60
75105;DHT22;64778;47.314;8.466;2023-02-28T18:02:14;0.20;76.60
75105;DHT22;64778;47.314;8.466;2023-02-28T18:04:42;0.20;76.30
75105;DHT22;64778;47.314;8.466;2023-02-28T18:10:15;0.30;76.40
75105;DHT22;64778;47.314;8.466;2023-02-28T18:12:41;0.30;76.30
75105;DHT22;64778;47.314;8.466;2023-02-28T18:15:06;0.20;76.80
75105;DHT22;64778;47.314;8.466;2023-02-28T18:17:35;0.10;77.40
75105;DHT22;64778;47.314;8.466;2023-02-28T18:20:03;0.10;77.40
75105;DHT22;64778;47.314;8.466;2023-02-28T18:22:29;0.10;77.60
75105;DHT22;64778;47.314;8.466;2023-02-28T18:24:57;0.20;77.10
75105;DHT22;64778;47.314;8.466;2023-02-28T18:27:23;0.10;77.40
75105;DHT22;64778;47.314;8.466;2023-02-28T18:29:51;0.20;77.10
75105;DHT22;64778;47.314;8.466;2023-02-28T18:32:16;0.30;77.10
75105;DHT22;64778;47.314;8.466;2023-02-28T18:34:44;0.20;77.40
75105;DHT22;64778;47.314;8.466;2023-02-28T18:37:10;0.10;77.70
75105;DHT22;64778;47.314;8.466;2023-02-28T18:39:40;0.10;77.80
75105;DHT22;64778;47.314;8.466;2023-02-28T18:42:11;0.20;77.50
75105;DHT22;64778;47.314;8.466;2023-02-28T18:44:39;0.20;77.60
75105;DHT22;64778;47.314;8.466;2023-02-28T18:47:04;0.10;76.80
75105;DHT22;64778;47.314;8.466;2023-02-28T18:49:30;0.00;76.90
75105;DHT22;64778;47.314;8.466;2023-02-28T18:51:58;0.00;76.90
75105;DHT22;64778;47.314;8.466;2023-02-28T18:54:23;-0.10;77.60
75105;DHT22;64778;47.314;8.466;2023-02-28T18:56:49;-0.10;77.60
75105;DHT22;64778;47.314;8.466;2023-02-28T18:59:18;-0.10;77.70
75105;DHT22;64778;47.314;8.466;2023-02-28T19:01:48;-0.10;77.80
75105;DHT22;64778;47.314;8.466;2023-02-28T19:04:16;-0.20;77.80
75105;DHT22;64778;47.314;8.466;2023-02-28T19:06:41;-0.30;77.90
75105;DHT22;64778;47.314;8.466;2023-02-28T19:09:07;-0.10;77.80
75105;DHT22;64778;47.314;8.466;2023-02-28T19:11:35;-0.10;77.70
75105;DHT22;64778;47.314;8.466;2023-02-28T19:14:00;-0.10;77.60
75105;DHT22;64778;47.314;8.466;2023-02-28T19:16:28;0.00;77.70
75105;DHT22;64778;47.314;8.466;2023-02-28T19:18:54;-0.10;77.90
75105;DHT22;64778;47.314;8.466;2023-02-28T19:21:20;-0.10;77.80
75105;DHT22;64778;47.314;8.466;2023-02-28T19:23:46;-0.10;78.00
75105;DHT22;64778;47.314;8.466;2023-02-28T19:26:13;0.00;77.80
75105;DHT22;64778;47.314;8.466;2023-02-28T19:28:41;0.00;77.90
75105;DHT22;64778;47.314;8.466;2023-02-28T19:31:20;0.10;77.70
75105;DHT22;64778;47.314;8.466;2023-02-28T19:33:46;0.10;77.90
75105;DHT22;64778;47.314;8.466;2023-02-28T19:36:14;0.00;78.10
75105;DHT22;64778;47.314;8.466;2023-02-28T19:41:43;0.00;78.30
75105;DHT22;64778;47.314;8.466;2023-02-28T19:44:08;0.00;78.00
75105;DHT22;64778;47.314;8.466;2023-02-28T19:46:36;0.00;77.80
75105;DHT22;64778;47.314;8.466;2023-02-28T19:49:02;0.00;78.00
75105;DHT22;64778;47.314;8.466;2023-02-28T19:51:27;0.00;78.30
75105;DHT22;64778;47.314;8.466;2023-02-28T19:53:53;0.10;77.80
75105;DHT22;64778;47.314;8.466;2023-02-28T19:56:23;0.00;78.20
75105;DHT22;64778;47.314;8.466;2023-02-28T19:58:49;0.00;78.20
75105;DHT22;64778;47.314;8.466;2023-02-28T20:01:18;0.10;78.20
75105;DHT22;64778;47.314;8.466;2023-02-28T20:03:50;0.10;78.20
75105;DHT22;64778;47.314;8.466;2023-02-28T20:06:16;0.20;77.90
75105;DHT22;64778;47.314;8.466;2023-02-28T20:08:42;0.10;77.60
75105;DHT22;64778;47.314;8.466;2023-02-28T20:11:12;0.00;78.00
75105;DHT22;64778;47.314;8.466;2023-02-28T20:13:39;0.00;78.30
75105;DHT22;64778;47.314;8.466;2023-02-28T20:19:27;0.00;78.60
75105;DHT22;64778;47.314;8.466;2023-02-28T20:25:16;0.10;77.70